Time;durP1;ratioP1;P1;durP2;ratioP2;P2;SDS_P1;SDS_P2;PMS_P1;PMS_P2;Temp;Humidity;BMP_temperature;BMP_pressure;BME280_temperature;BME280_humidity;BME280_pressure;Samples;Min_cycle;Max_cycle;Signal;HPM_P1;HPM_P2
2022/10/10 00:01:35;;;;;;;4.23;2.60;;;13.80;91.50;;;;;;4909511;29;20919;-70
2022/10/10 00:04:04;;;;;;;4.27;2.83;;;13.80;91.50;;;;;;4938395;29;20832;-70
2022/10/10 00:06:31;;;;;;;3.30;2.80;;;13.80;91.50;;;;;;4937312;29;20460;-71
2022/10/10 00:08:59;;;;;;;4.33;2.70;;;13.80;91.50;;;;;;4952675;28;20464;-70
2022/10/10 00:11:27;;;;;;;4.30;2.70;;;13.80;91.50;;;;;;4951707;29;20417;-70
2022/10/10 00:13:54;;;;;;;3.20;2.90;;;13.80;91.60;;;;;;4922393;29;20432;-71
2022/10/10 00:16:19;;;;;;;4.10;2.70;;;13.80;91.60;;;;;;4946345;28;20550;-70
2022/10/10 00:18:46;;;;;;;2.97;2.57;;;13.70;91.50;;;;;;4922538;29;21276;-71
2022/10/10 00:21:14;;;;;;;3.53;2.80;;;13.70;91.50;;;;;;4937742;29;20444;-71
2022/10/10 00:23:40;;;;;;;3.37;2.57;;;13.70;91.50;;;;;;4952556;29;20405;-70
2022/10/10 00:26:06;;;;;;;3.60;2.30;;;13.70;91.50;;;;;;4930327;29;20857;-70
2022/10/10 00:28:32;;;;;;;3.90;2.53;;;13.70;91.50;;;;;;4945877;29;20469;-70
2022/10/10 00:30:58;;;;;;;3.60;2.13;;;13.70;91.60;;;;;;4952156;29;20427;-71
2022/10/10 00:33:24;;;;;;;3.40;2.50;;;13.70;91.60;;;;;;4944998;28;20515;-71
2022/10/10 00:35:51;;;;;;;3.47;2.10;;;13.70;91.60;;;;;;4948287;29;21086;-71
2022/10/10 00:38:16;;;;;;;3.07;2.70;;;13.70;91.60;;;;;;4945854;29;20442;-71
2022/10/10 00:40:53;;;;;;;2.67;2.20;;;13.70;91.60;;;;;;4947010;29;20507;-70
2022/10/10 00:43:22;;;;;;;2.60;2.30;;;13.70;91.60;;;;;;4946859;29;20170;-71
2022/10/10 00:45:53;;;;;;;3.30;2.50;;;13.70;91.60;;;;;;4934423;29;20443;-70
2022/10/10 00:48:34;;;;;;;3.03;2.37;;;13.70;91.60;;;;;;4946373;28;20431;-70
2022/10/10 00:51:17;;;;;;;3.00;2.00;;;13.70;91.60;;;;;;4945310;29;20420;-70
2022/10/10 00:53:44;;;;;;;2.80;2.37;;;13.60;91.60;;;;;;4935321;29;20411;-70
2022/10/10 00:56:16;;;;;;;2.87;2.40;;;13.60;91.60;;;;;;4946819;29;20469;-71
2022/10/10 00:58:45;;;;;;;2.30;2.10;;;13.60;91.60;;;;;;4934117;29;20457;-71
2022/10/10 01:01:15;;;;;;;5.77;2.80;;;13.60;91.60;;;;;;4941651;29;20908;-70
2022/10/10 01:03:41;;;;;;;3.80;2.40;;;13.60;91.60;;;;;;4937284;29;20812;-70
2022/10/10 01:06:10;;;;;;;3.80;2.13;;;13.60;91.60;;;;;;4953174;29;20439;-70
2022/10/10 01:08:36;;;;;;;2.93;2.53;;;13.60;91.70;;;;;;4936664;29;20446;-70
2022/10/10 01:11:21;;;;;;;3.17;2.40;;;13.60;91.70;;;;;;4953109;29;20457;-71
2022/10/10 01:14:02;;;;;;;2.50;2.23;;;13.60;91.70;;;;;;4936140;29;20484;-70
2022/10/10 01:16:45;;;;;;;2.83;2.20;;;13.60;91.70;;;;;;4936909;29;20479;-70
2022/10/10 01:19:23;;;;;;;3.80;2.27;;;13.60;91.70;;;;;;4917205;29;20444;-70
2022/10/10 01:21:59;;;;;;;3.40;2.30;;;13.60;91.70;;;;;;4934869;29;20893;-70
2022/10/10 01:24:29;;;;;;;2.50;2.20;;;13.50;91.70;;;;;;4952394;29;20437;-70
2022/10/10 01:27:25;;;;;;;3.70;2.27;;;13.60;91.70;;;;;;4936949;29;20452;-70
2022/10/10 01:30:01;;;;;;;2.60;2.17;;;13.50;91.70;;;;;;4951522;28;20479;-70
2022/10/10 01:32:36;;;;;;;3.77;2.20;;;13.50;91.70;;;;;;4936021;29;20942;-70
2022/10/10 01:35:44;;;;;;;3.77;2.33;;;13.50;91.70;;;;;;4944942;29;20527;-70
2022/10/10 01:38:39;;;;;;;3.57;2.07;;;13.50;91.70;;;;;;4935788;29;20847;-70
2022/10/10 01:41:15;;;;;;;3.67;2.57;;;13.50;91.70;;;;;;4944707;29;20497;-71
2022/10/10 01:43:43;;;;;;;2.67;1.93;;;13.50;91.80;;;;;;4951778;28;20430;-71
2022/10/10 01:46:15;;;;;;;2.67;1.90;;;13.50;91.70;;;;;;4936838;29;20472;-70
2022/10/10 01:48:47;;;;;;;2.83;1.93;;;13.50;91.70;;;;;;4943559;29;20454;-70
2022/10/10 01:51:22;;;;;;;3.23;2.33;;;13.50;91.80;;;;;;4945288;29;20423;-70
2022/10/10 01:53:58;;;;;;;3.77;2.23;;;13.40;91.70;;;;;;4931683;29;21131;-70
2022/10/10 01:56:32;;;;;;;2.77;2.47;;;13.50;91.80;;;;;;4934630;28;20465;-70
2022/10/10 01:59:01;;;;;;;2.70;2.10;;;13.50;91.80;;;;;;4934523;29;20421;-70
2022/10/10 02:01:33;;;;;;;2.63;2.30;;;13.50;91.80;;;;;;4948472;29;20458;-70
2022/10/10 02:04:14;;;;;;;2.10;1.90;;;13.50;91.80;;;;;;4952674;29;20868;-70
2022/10/10 02:06:43;;;;;;;2.23;2.03;;;13.50;91.80;;;;;;4917664;29;20462;-70
2022/10/10 02:09:19;;;;;;;5.10;2.27;;;13.40;91.80;;;;;;4920079;29;20485;-70
2022/10/10 02:11:47;;;;;;;2.53;2.10;;;13.40;91.80;;;;;;4936979;29;20453;-70
2022/10/10 02:14:27;;;;;;;2.43;1.73;;;13.40;91.80;;;;;;4939608;29;20447;-70
2022/10/10 02:17:09;;;;;;;3.40;2.30;;;13.40;91.80;;;;;;4952018;29;20472;-70
2022/10/10 02:19:45;;;;;;;2.30;1.87;;;13.40;91.80;;;;;;4950102;29;20450;-70
2022/10/10 02:22:12;;;;;;;4.70;2.13;;;13.40;91.80;;;;;;4917996;29;20450;-70
2022/10/10 02:24:39;;;;;;;4.40;2.57;;;13.40;91.80;;;;;;4926376;29;20438;-70
2022/10/10 02:27:25;;;;;;;2.90;2.30;;;13.40;91.80;;;;;;4934327;29;20448;-70
2022/10/10 02:29:52;;;;;;;2.40;2.07;;;13.40;91.80;;;;;;4937441;29;20500;-70
2022/10/10 02:32:31;;;;;;;2.70;1.93;;;13.40;91.80;;;;;;4938471;29;20429;-70
2022/10/10 02:35:02;;;;;;;2.60;2.17;;;13.40;91.80;;;;;;4944848;29;20425;-70
2022/10/10 02:37:34;;;;;;;2.50;2.07;;;13.40;91.80;;;;;;4936540;29;20477;-70
2022/10/10 02:40:03;;;;;;;2.50;2.30;;;13.30;91.80;;;;;;4941969;29;20439;-70
2022/10/10 02:42:30;;;;;;;3.13;2.00;;;13.40;91.80;;;;;;4955286;29;20472;-70
2022/10/10 02:44:57;;;;;;;2.17;1.90;;;13.40;91.80;;;;;;4934911;29;20686;-70
2022/10/10 02:47:23;;;;;;;2.37;2.10;;;13.40;91.80;;;;;;4938927;29;20453;-70
2022/10/10 02:49:49;;;;;;;2.70;2.50;;;13.30;91.80;;;;;;4905034;29;20461;-70
2022/10/10 02:52:15;;;;;;;4.37;2.27;;;13.40;91.80;;;;;;4954297;29;20486;-70
2022/10/10 02:54:50;;;;;;;2.50;1.97;;;13.40;91.80;;;;;;4933657;29;20883;-70
2022/10/10 02:57:23;;;;;;;2.30;2.10;;;13.30;91.80;;;;;;4950459;29;20473;-70
2022/10/10 02:59:52;;;;;;;2.43;1.93;;;13.30;91.80;;;;;;4953413;29;20443;-70
2022/10/10 03:02:18;;;;;;;2.37;2.00;;;13.30;91.90;;;;;;4936367;29;20484;-70
2022/10/10 03:04:46;;;;;;;2.43;2.23;;;13.30;91.80;;;;;;4920609;29;20420;-70
2022/10/10 03:07:15;;;;;;;3.40;2.10;;;13.30;91.80;;;;;;4923322;29;20463;-69
2022/10/10 03:09:43;;;;;;;3.07;2.03;;;13.30;91.90;;;;;;4955416;28;20427;-70
2022/10/10 03:12:09;;;;;;;2.57;2.10;;;13.30;91.90;;;;;;4956391;28;20409;-70
2022/10/10 03:14:38;;;;;;;3.47;2.00;;;13.30;91.90;;;;;;4954977;29;20439;-70
2022/10/10 03:17:04;;;;;;;4.40;3.40;;;13.30;91.90;;;;;;4955124;29;20844;-70
2022/10/10 03:19:30;;;;;;;2.30;2.10;;;13.30;91.90;;;;;;4939341;29;20423;-70
2022/10/10 03:21:56;;;;;;;3.23;2.00;;;13.30;91.90;;;;;;4955270;29;20809;-70
2022/10/10 03:24:22;;;;;;;2.30;2.00;;;13.30;91.90;;;;;;4956101;28;20433;-70
2022/10/10 03:26:51;;;;;;;4.27;2.40;;;13.30;92.00;;;;;;4931643;29;20473;-70
2022/10/10 03:29:16;;;;;;;2.67;2.17;;;13.30;92.00;;;;;;4921951;29;20450;-70
2022/10/10 03:31:45;;;;;;;3.50;2.00;;;13.30;92.00;;;;;;4939266;29;20423;-70
2022/10/10 03:34:11;;;;;;;2.70;2.03;;;13.30;92.00;;;;;;4921147;29;20460;-70
2022/10/10 03:36:40;;;;;;;2.33;2.00;;;13.30;92.00;;;;;;4939093;29;20471;-70
2022/10/10 03:39:08;;;;;;;5.83;2.80;;;13.30;92.00;;;;;;4937496;29;20772;-70
2022/10/10 03:41:49;;;;;;;3.97;2.63;;;13.30;92.00;;;;;;4942487;29;20951;-70
2022/10/10 03:44:15;;;;;;;4.00;1.93;;;13.30;92.00;;;;;;4934859;29;20438;-70
2022/10/10 03:46:44;;;;;;;3.10;2.10;;;13.30;92.10;;;;;;4956049;28;20450;-70
2022/10/10 03:49:12;;;;;;;2.57;2.30;;;13.30;92.10;;;;;;4926074;29;21008;-70
2022/10/10 03:51:40;;;;;;;3.50;1.80;;;13.30;92.10;;;;;;4935841;28;20431;-70
2022/10/10 03:54:08;;;;;;;3.53;2.07;;;13.30;92.10;;;;;;4955174;28;20528;-70
2022/10/10 03:56:39;;;;;;;2.33;2.10;;;13.20;92.10;;;;;;4954643;28;20517;-70
2022/10/10 03:59:05;;;;;;;2.53;2.33;;;13.30;92.10;;;;;;4914396;29;20952;-70
2022/10/10 04:01:34;;;;;;;2.67;2.33;;;13.20;92.10;;;;;;4951553;28;20807;-70
2022/10/10 04:04:03;;;;;;;2.50;2.30;;;13.20;92.10;;;;;;4948302;28;20959;-70
2022/10/10 04:06:30;;;;;;;2.17;1.70;;;13.20;92.10;;;;;;4934973;29;20455;-70
2022/10/10 04:09:00;;;;;;;2.37;2.07;;;13.20;92.20;;;;;;4934186;29;20458;-70
2022/10/10 04:11:29;;;;;;;2.40;2.20;;;13.20;92.20;;;;;;4947742;28;20516;-70
2022/10/10 04:13:59;;;;;;;2.87;2.33;;;13.20;92.20;;;;;;4941850;29;20426;-70
2022/10/10 04:16:25;;;;;;;2.40;2.20;;;13.20;92.20;;;;;;4954111;29;20469;-70
2022/10/10 04:18:54;;;;;;;2.80;2.50;;;13.20;92.20;;;;;;4950334;28;20944;-70
2022/10/10 04:21:20;;;;;;;4.00;2.40;;;13.20;92.20;;;;;;4920377;29;20169;-70
2022/10/10 04:23:48;;;;;;;3.40;2.20;;;13.20;92.30;;;;;;4923591;29;21144;-70
2022/10/10 04:26:17;;;;;;;2.50;2.30;;;13.20;92.30;;;;;;4946318;28;20452;-70
2022/10/10 04:28:42;;;;;;;3.20;2.60;;;13.20;92.30;;;;;;4926530;29;20429;-70
2022/10/10 04:31:09;;;;;;;2.73;2.33;;;13.20;92.30;;;;;;4934350;29;20453;-70
2022/10/10 04:33:38;;;;;;;3.13;2.47;;;13.20;92.30;;;;;;4952818;28;20179;-70
2022/10/10 04:36:06;;;;;;;6.17;3.30;;;13.20;92.30;;;;;;4947882;28;20475;-70
2022/10/10 04:38:32;;;;;;;4.97;2.70;;;13.20;92.40;;;;;;4919079;29;20436;-71
2022/10/10 04:40:58;;;;;;;3.37;2.40;;;13.20;92.40;;;;;;4950759;28;20495;-73
2022/10/10 04:43:24;;;;;;;4.70;2.30;;;13.20;92.40;;;;;;4921597;29;20422;-72
2022/10/10 04:45:56;;;;;;;3.10;2.30;;;13.20;92.40;;;;;;4951302;29;20429;-73
2022/10/10 04:48:22;;;;;;;2.50;2.23;;;13.20;92.40;;;;;;4937497;29;20790;-71
2022/10/10 04:50:56;;;;;;;4.60;2.50;;;13.20;92.40;;;;;;4934601;29;20741;-70
2022/10/10 04:53:22;;;;;;;2.93;2.40;;;13.20;92.40;;;;;;4941149;29;20940;-70
2022/10/10 04:55:51;;;;;;;3.77;3.03;;;13.20;92.40;;;;;;4945194;29;20500;-71
2022/10/10 04:58:22;;;;;;;3.70;2.93;;;13.20;92.50;;;;;;4935349;29;20418;-70
2022/10/10 05:00:53;;;;;;;3.27;2.70;;;13.20;92.50;;;;;;4947081;29;20864;-70
2022/10/10 05:03:42;;;;;;;3.00;2.70;;;13.20;92.50;;;;;;4920140;29;20433;-70
2022/10/10 05:06:08;;;;;;;3.13;2.07;;;13.20;92.50;;;;;;4917339;29;20600;-70
2022/10/10 05:08:34;;;;;;;3.77;2.80;;;13.10;92.50;;;;;;4932080;29;20446;-70
2022/10/10 05:11:05;;;;;;;3.10;2.80;;;13.20;92.50;;;;;;4932888;29;20424;-70
2022/10/10 05:13:48;;;;;;;2.80;2.23;;;13.10;92.50;;;;;;4918790;29;20179;-70
2022/10/10 05:16:15;;;;;;;4.70;3.20;;;13.10;92.50;;;;;;4900939;29;20478;-70
2022/10/10 05:18:41;;;;;;;2.57;2.37;;;13.10;92.60;;;;;;4925030;29;20462;-71
2022/10/10 05:21:07;;;;;;;2.77;2.50;;;13.10;92.60;;;;;;4908214;29;20539;-71
2022/10/10 05:23:53;;;;;;;3.40;2.80;;;13.10;92.60;;;;;;4899222;29;20983;-71
2022/10/10 05:26:20;;;;;;;3.47;2.83;;;13.10;92.60;;;;;;4923133;29;20471;-71
2022/10/10 05:28:46;;;;;;;6.30;3.30;;;13.10;92.70;;;;;;4909838;29;20465;-71
2022/10/10 05:31:13;;;;;;;6.53;2.60;;;13.10;92.70;;;;;;4901488;29;20508;-71
2022/10/10 05:33:39;;;;;;;4.33;2.60;;;13.10;92.70;;;;;;4913978;29;20449;-71
2022/10/10 05:36:11;;;;;;;2.83;2.63;;;13.10;92.70;;;;;;4913736;29;20479;-71
2022/10/10 05:38:38;;;;;;;4.23;2.97;;;13.10;92.70;;;;;;4914223;29;20474;-73
2022/10/10 05:41:05;;;;;;;4.10;3.00;;;13.10;92.70;;;;;;4918287;29;20430;-71
2022/10/10 05:43:31;;;;;;;3.77;2.43;;;13.10;92.70;;;;;;4919889;29;20555;-71
2022/10/10 05:46:02;;;;;;;3.93;2.87;;;13.10;92.80;;;;;;4943388;29;20465;-72
2022/10/10 05:48:30;;;;;;;3.90;2.67;;;13.10;92.80;;;;;;4916960;29;20529;-72
2022/10/10 05:50:58;;;;;;;3.60;2.90;;;13.10;92.80;;;;;;4940372;28;20798;-72
2022/10/10 05:53:29;;;;;;;5.17;3.27;;;13.10;92.80;;;;;;4934729;29;20973;-72
2022/10/10 05:55:56;;;;;;;3.47;2.93;;;13.10;92.90;;;;;;4944817;29;20422;-72
2022/10/10 05:58:25;;;;;;;3.30;2.80;;;13.00;92.80;;;;;;4933666;29;20403;-71
2022/10/10 06:00:51;;;;;;;3.33;2.97;;;13.10;92.90;;;;;;4935322;29;20788;-72
2022/10/10 06:03:17;;;;;;;3.27;2.63;;;13.10;92.90;;;;;;4940592;29;20451;-72
2022/10/10 06:05:47;;;;;;;3.80;2.77;;;13.10;92.90;;;;;;4951451;29;20444;-72
2022/10/10 06:08:13;;;;;;;3.40;3.10;;;13.10;92.90;;;;;;4946514;29;20427;-72
2022/10/10 06:10:44;;;;;;;3.13;2.83;;;13.10;92.90;;;;;;4923911;29;20875;-72
2022/10/10 06:13:11;;;;;;;3.20;2.90;;;13.00;93.20;;;;;;4937239;29;20447;-71
2022/10/10 06:15:40;;;;;;;3.83;2.87;;;13.10;93.00;;;;;;4937504;29;20434;-72
2022/10/10 06:18:06;;;;;;;4.20;3.00;;;13.00;92.90;;;;;;4942764;29;20873;-71
2022/10/10 06:20:37;;;;;;;3.60;2.80;;;13.00;92.90;;;;;;4945881;29;20514;-72
2022/10/10 06:23:23;;;;;;;2.97;2.60;;;13.10;93.30;;;;;;4941166;29;20988;-72
2022/10/10 06:25:51;;;;;;;7.20;2.80;;;13.00;93.00;;;;;;4953514;29;20450;-72
2022/10/10 06:28:17;;;;;;;4.03;3.20;;;13.00;93.00;;;;;;4947465;29;20422;-72
2022/10/10 06:30:44;;;;;;;3.53;3.20;;;13.00;93.00;;;;;;4937376;29;20514;-72
2022/10/10 06:33:14;;;;;;;4.33;3.13;;;13.00;93.00;;;;;;4947776;29;20210;-72
2022/10/10 06:35:41;;;;;;;5.93;2.83;;;13.00;93.00;;;;;;4947283;28;20416;-72
2022/10/10 06:38:10;;;;;;;4.00;2.83;;;13.00;93.00;;;;;;4935928;29;20479;-72
2022/10/10 06:40:36;;;;;;;4.97;3.60;;;13.00;93.10;;;;;;4946907;29;20430;-72
2022/10/10 06:43:03;;;;;;;4.57;3.13;;;13.00;93.10;;;;;;4921181;29;20421;-72
2022/10/10 06:45:42;;;;;;;3.10;2.57;;;13.00;93.10;;;;;;4948400;29;20459;-72
2022/10/10 06:48:09;;;;;;;3.67;2.67;;;13.00;93.10;;;;;;4950969;29;20419;-72
2022/10/10 06:50:38;;;;;;;2.60;2.40;;;13.00;93.10;;;;;;4910645;29;20446;-71
2022/10/10 06:53:04;;;;;;;4.23;3.10;;;13.00;93.20;;;;;;4953127;28;20419;-72
2022/10/10 06:55:34;;;;;;;3.87;3.07;;;13.00;93.20;;;;;;4951649;29;20537;-72
2022/10/10 06:58:00;;;;;;;6.67;3.77;;;13.00;93.20;;;;;;4937051;29;21145;-72
2022/10/10 07:00:26;;;;;;;4.33;2.83;;;13.00;93.20;;;;;;4936822;29;20420;-72
2022/10/10 07:02:53;;;;;;;5.03;2.80;;;13.00;93.20;;;;;;4936708;29;20808;-72
2022/10/10 07:05:18;;;;;;;4.47;2.83;;;13.00;93.30;;;;;;4948735;29;20423;-72
2022/10/10 07:07:51;;;;;;;7.53;2.57;;;13.00;93.30;;;;;;4946466;29;20450;-72
2022/10/10 07:10:19;;;;;;;3.93;3.10;;;13.00;93.40;;;;;;4928026;29;20948;-72
2022/10/10 07:12:50;;;;;;;4.13;2.83;;;13.00;93.40;;;;;;4954240;29;20522;-72
2022/10/10 07:15:16;;;;;;;4.90;3.20;;;13.00;93.40;;;;;;4942247;28;20420;-72
2022/10/10 07:17:44;;;;;;;7.27;2.93;;;13.00;93.40;;;;;;4920240;29;21021;-72
2022/10/10 07:20:19;;;;;;;4.27;3.37;;;13.00;93.50;;;;;;4952343;29;20450;-72
2022/10/10 07:22:47;;;;;;;4.63;2.77;;;13.00;93.50;;;;;;4940004;29;20437;-72
2022/10/10 07:25:16;;;;;;;3.70;2.93;;;13.10;93.60;;;;;;4937354;29;20509;-72
2022/10/10 07:27:48;;;;;;;5.50;3.00;;;13.10;93.50;;;;;;4948672;28;20840;-72
2022/10/10 07:30:14;;;;;;;3.67;2.80;;;13.10;93.50;;;;;;4938672;29;20450;-72
2022/10/10 07:32:42;;;;;;;4.43;3.37;;;13.10;93.40;;;;;;4955130;28;20434;-72
2022/10/10 07:35:10;;;;;;;4.00;3.60;;;13.10;93.40;;;;;;4934796;29;20435;-72
2022/10/10 07:37:39;;;;;;;3.70;2.83;;;13.10;93.40;;;;;;4947493;28;21006;-72
2022/10/10 07:40:07;;;;;;;5.10;3.17;;;13.10;93.40;;;;;;4935782;29;20534;-72
2022/10/10 07:42:34;;;;;;;4.97;3.73;;;13.10;93.50;;;;;;4947999;29;20435;-72
2022/10/10 07:45:00;;;;;;;3.40;2.97;;;13.10;93.40;;;;;;4946201;28;20430;-72
2022/10/10 07:47:26;;;;;;;3.87;2.90;;;13.10;93.60;;;;;;4946266;28;20459;-73
2022/10/10 07:49:52;;;;;;;4.67;3.43;;;13.10;93.50;;;;;;4941170;28;20461;-72
2022/10/10 07:52:25;;;;;;;4.73;2.77;;;13.10;93.60;;;;;;4940831;29;20435;-72
2022/10/10 07:54:56;;;;;;;6.97;3.07;;;13.10;93.50;;;;;;4926803;29;20461;-72
2022/10/10 07:57:27;;;;;;;3.37;3.00;;;13.10;93.50;;;;;;4949304;28;20481;-72
2022/10/10 07:59:58;;;;;;;4.90;3.20;;;13.20;93.60;;;;;;4953977;28;20443;-73
2022/10/10 08:02:24;;;;;;;4.30;3.30;;;13.20;93.70;;;;;;4953376;28;20469;-72
2022/10/10 08:04:50;;;;;;;4.37;3.57;;;13.10;93.60;;;;;;4952981;28;20871;-72
2022/10/10 08:07:18;;;;;;;3.83;3.40;;;13.20;93.60;;;;;;4936616;29;20479;-72
2022/10/10 08:09:59;;;;;;;3.00;2.70;;;13.20;93.60;;;;;;4935149;29;20635;-72
2022/10/10 08:12:25;;;;;;;6.10;3.17;;;13.20;93.60;;;;;;4942686;29;20513;-72
2022/10/10 08:14:59;;;;;;;4.33;3.20;;;13.20;93.70;;;;;;4945548;29;20424;-72
2022/10/10 08:17:25;;;;;;;6.03;3.70;;;13.20;93.60;;;;;;4935827;29;20835;-73
2022/10/10 08:20:13;;;;;;;4.03;3.13;;;13.20;93.70;;;;;;4907990;29;20530;-73
2022/10/10 08:22:41;;;;;;;3.50;3.10;;;13.20;93.70;;;;;;4939034;29;20428;-72
2022/10/10 08:25:08;;;;;;;3.80;2.93;;;13.20;93.70;;;;;;4954890;28;20466;-72
2022/10/10 08:27:34;;;;;;;3.93;2.90;;;13.20;93.70;;;;;;4934249;29;20683;-72
2022/10/10 08:30:00;;;;;;;3.37;2.80;;;13.20;93.70;;;;;;4936580;29;20956;-72
2022/10/10 08:32:32;;;;;;;4.90;3.03;;;13.20;93.70;;;;;;4951336;29;20395;-72
2022/10/10 08:35:00;;;;;;;3.10;2.80;;;13.20;93.70;;;;;;4942449;29;20464;-72
2022/10/10 08:37:28;;;;;;;3.57;3.27;;;13.20;93.70;;;;;;4952917;29;20476;-73
2022/10/10 08:39:54;;;;;;;3.40;2.90;;;13.20;93.80;;;;;;4923901;29;20440;-72
2022/10/10 08:42:30;;;;;;;4.80;3.23;;;13.20;93.80;;;;;;4930619;29;20448;-72
2022/10/10 08:45:01;;;;;;;7.67;3.70;;;13.20;93.90;;;;;;4941901;29;20439;-72
2022/10/10 08:47:38;;;;;;;3.70;2.70;;;13.20;93.90;;;;;;4935343;29;20459;-72
2022/10/10 08:50:07;;;;;;;4.80;3.13;;;13.20;93.90;;;;;;4918348;29;20432;-72
2022/10/10 08:52:42;;;;;;;4.10;2.90;;;13.20;94.00;;;;;;4925790;29;20922;-72
2022/10/10 08:55:25;;;;;;;6.20;3.70;;;13.30;94.10;;;;;;4909612;29;20489;-73
2022/10/10 08:58:15;;;;;;;5.00;3.27;;;13.30;94.10;;;;;;4926762;29;21089;-71
2022/10/10 09:00:47;;;;;;;3.40;3.10;;;13.30;94.10;;;;;;4944012;29;20535;-71
2022/10/10 09:03:37;;;;;;;4.60;2.80;;;13.30;94.10;;;;;;4950026;29;20467;-71
2022/10/10 09:06:18;;;;;;;4.33;3.10;;;13.30;94.10;;;;;;4935506;29;20449;-72
2022/10/10 09:09:05;;;;;;;4.27;3.60;;;13.30;94.20;;;;;;4910987;29;20869;-72
2022/10/10 09:11:49;;;;;;;5.10;3.50;;;13.40;94.20;;;;;;4950915;29;20785;-72
2022/10/10 09:14:38;;;;;;;4.30;3.53;;;13.40;94.30;;;;;;4949713;29;20469;-72
2022/10/10 09:17:30;;;;;;;7.27;3.20;;;13.40;94.30;;;;;;4932160;29;20456;-71
2022/10/10 09:20:25;;;;;;;3.53;3.23;;;13.40;94.40;;;;;;4932317;29;20426;-72
2022/10/10 09:23:25;;;;;;;5.20;3.67;;;13.40;94.30;;;;;;4943370;28;20519;-71
2022/10/10 09:26:04;;;;;;;5.33;3.13;;;13.50;94.50;;;;;;4939436;29;20441;-72
2022/10/10 09:28:45;;;;;;;4.30;3.30;;;13.50;94.50;;;;;;4967736;28;20464;-73
2022/10/10 09:31:17;;;;;;;5.50;3.47;;;13.50;94.50;;;;;;4953356;28;20527;-72
2022/10/10 09:34:04;;;;;;;4.30;3.90;;;13.50;94.50;;;;;;4941603;29;21113;-72
2022/10/10 09:36:34;;;;;;;4.20;3.63;;;13.60;94.60;;;;;;4949857;28;20476;-72
2022/10/10 09:39:42;;;;;;;4.83;3.20;;;13.60;94.60;;;;;;4948773;28;21205;-72
2022/10/10 09:42:28;;;;;;;8.30;3.77;;;13.60;94.60;;;;;;4952606;28;20442;-72
2022/10/10 09:44:53;;;;;;;4.53;4.13;;;13.70;94.60;;;;;;4916436;29;20499;-72
2022/10/10 09:47:42;;;;;;;4.70;3.50;;;13.70;94.60;;;;;;4932684;29;20819;-72
2022/10/10 09:50:17;;;;;;;4.00;3.07;;;13.70;94.60;;;;;;4932958;29;20423;-72
2022/10/10 09:52:44;;;;;;;3.60;3.30;;;13.80;94.70;;;;;;4943652;29;20462;-72
2022/10/10 09:55:38;;;;;;;4.67;3.47;;;13.80;94.70;;;;;;4910148;29;20439;-72
2022/10/10 09:58:31;;;;;;;4.60;3.40;;;13.80;94.60;;;;;;4950818;28;20467;-72
2022/10/10 10:01:32;;;;;;;5.23;3.57;;;13.80;94.60;;;;;;4950852;29;20482;-72
2022/10/10 10:04:15;;;;;;;6.33;3.67;;;13.90;94.60;;;;;;4917691;29;20987;-72
2022/10/10 10:06:48;;;;;;;4.10;3.20;;;13.90;94.60;;;;;;4941879;29;20458;-72
2022/10/10 10:09:17;;;;;;;5.10;3.27;;;13.90;94.60;;;;;;4934243;29;20855;-72
2022/10/10 10:11:45;;;;;;;4.80;3.70;;;13.90;94.60;;;;;;4951601;28;20525;-72
2022/10/10 10:14:37;;;;;;;4.00;3.30;;;13.90;94.60;;;;;;4934166;28;20446;-72
2022/10/10 10:17:13;;;;;;;3.30;3.00;;;14.00;94.60;;;;;;4929093;29;21003;-72
2022/10/10 10:19:44;;;;;;;5.67;3.80;;;14.00;94.60;;;;;;4950120;29;20914;-72
2022/10/10 10:22:45;;;;;;;8.20;3.50;;;14.00;94.60;;;;;;4934487;29;20453;-72
2022/10/10 10:25:34;;;;;;;4.97;3.60;;;14.00;94.60;;;;;;4931068;29;20424;-72
2022/10/10 10:28:25;;;;;;;4.53;3.33;;;14.10;94.70;;;;;;4936426;28;20789;-72
2022/10/10 10:30:54;;;;;;;6.07;3.50;;;14.10;94.70;;;;;;4940014;28;20491;-69
2022/10/10 10:33:38;;;;;;;6.70;3.33;;;14.10;94.70;;;;;;4905925;29;20429;-69
2022/10/10 10:36:47;;;;;;;6.00;3.40;;;14.20;94.80;;;;;;4910727;29;20453;-69
2022/10/10 10:39:55;;;;;;;7.00;3.60;;;14.20;94.80;;;;;;4878523;29;20489;-69
2022/10/10 10:42:40;;;;;;;9.50;3.80;;;14.20;94.90;;;;;;4875758;29;20870;-70
2022/10/10 10:45:20;;;;;;;5.17;3.33;;;14.30;95.40;;;;;;4893549;29;20813;-69
2022/10/10 10:48:08;;;;;;;9.33;3.40;;;14.30;95.70;;;;;;4878099;29;20524;-69
2022/10/10 10:50:52;;;;;;;7.70;3.83;;;14.40;95.80;;;;;;4878618;29;20804;-70
2022/10/10 10:53:35;;;;;;;4.40;4.00;;;14.40;95.80;;;;;;4893228;29;20513;-69
2022/10/10 10:56:09;;;;;;;6.33;3.43;;;14.40;96.00;;;;;;4892585;29;20422;-70
2022/10/10 10:58:49;;;;;;;7.13;3.63;;;14.50;96.20;;;;;;4897983;29;20810;-69
2022/10/10 11:02:10;;;;;;;4.83;3.40;;;14.50;96.20;;;;;;4898290;29;20417;-69
2022/10/10 11:05:00;;;;;;;6.50;3.40;;;14.60;96.30;;;;;;4861241;29;20490;-69
2022/10/10 11:07:34;;;;;;;8.10;3.93;;;14.60;96.30;;;;;;4861193;29;20465;-69
2022/10/10 11:10:20;;;;;;;7.90;3.40;;;14.60;96.50;;;;;;4885230;29;20849;-70
2022/10/10 11:12:57;;;;;;;5.67;3.77;;;14.60;96.50;;;;;;4895968;29;20480;-69
2022/10/10 11:15:51;;;;;;;10.03;3.60;;;14.70;96.80;;;;;;4897953;29;20920;-69
2022/10/10 11:18:44;;;;;;;8.97;3.90;;;14.80;97.20;;;;;;4896293;29;20526;-69
2022/10/10 11:21:22;;;;;;;7.47;3.80;;;14.80;97.20;;;;;;4888162;29;20542;-73
2022/10/10 11:24:50;;;;;;;8.40;3.93;;;14.80;97.00;;;;;;4904003;29;20429;-73
2022/10/10 11:27:31;;;;;;;7.80;4.10;;;14.80;96.80;;;;;;4900943;29;20516;-72
2022/10/10 11:30:13;;;;;;;5.80;3.47;;;14.90;96.70;;;;;;4909808;29;20484;-74
2022/10/10 11:32:41;;;;;;;5.83;3.60;;;14.90;96.50;;;;;;4899612;29;20463;-73
2022/10/10 11:35:32;;;;;;;6.17;3.57;;;14.90;96.40;;;;;;4882373;29;20446;-73
2022/10/10 11:38:13;;;;;;;6.13;3.00;;;14.90;96.30;;;;;;4897413;29;20978;-75
2022/10/10 11:40:59;;;;;;;6.60;3.00;;;14.90;96.30;;;;;;4903188;29;20506;-74
2022/10/10 11:43:29;;;;;;;5.23;3.57;;;15.00;96.30;;;;;;4897607;29;20494;-70
2022/10/10 11:46:04;;;;;;;5.37;3.30;;;15.00;96.30;;;;;;4894274;29;20471;-70
2022/10/10 11:49:03;;;;;;;5.73;3.37;;;15.00;96.30;;;;;;4865895;29;20486;-70
2022/10/10 11:51:47;;;;;;;3.90;3.03;;;15.00;96.30;;;;;;4880583;29;20497;-73
2022/10/10 11:54:36;;;;;;;7.23;3.23;;;15.00;96.20;;;;;;4879752;29;20532;-70
2022/10/10 11:57:12;;;;;;;5.37;3.10;;;15.10;96.30;;;;;;4877278;29;20524;-70
2022/10/10 12:00:10;;;;;;;7.13;3.27;;;15.10;96.30;;;;;;4880141;29;20454;-70
2022/10/10 12:02:43;;;;;;;5.80;2.90;;;15.10;96.30;;;;;;4893612;29;20436;-70
2022/10/10 12:05:26;;;;;;;8.50;3.63;;;15.10;96.40;;;;;;4896876;29;20441;-70
2022/10/10 12:08:22;;;;;;;5.67;4.10;;;15.10;96.30;;;;;;4895312;29;20597;-70
2022/10/10 12:10:51;;;;;;;4.50;2.83;;;15.10;96.30;;;;;;4895382;29;20431;-69
2022/10/10 12:13:35;;;;;;;5.77;4.00;;;15.20;96.30;;;;;;4892938;29;20446;-70
2022/10/10 12:16:06;;;;;;;4.10;3.07;;;15.20;96.20;;;;;;4893853;29;20407;-70
2022/10/10 12:18:39;;;;;;;8.27;3.20;;;15.20;96.30;;;;;;4878147;29;20676;-70
2022/10/10 12:21:19;;;;;;;6.17;3.60;;;15.20;96.30;;;;;;4894590;29;20428;-70
2022/10/10 12:24:13;;;;;;;5.27;3.63;;;15.20;96.20;;;;;;4893563;29;20432;-69
2022/10/10 12:26:59;;;;;;;5.13;3.13;;;15.30;96.40;;;;;;4892599;29;20470;-69
2022/10/10 12:29:53;;;;;;;9.80;3.40;;;15.30;96.40;;;;;;4895571;29;20512;-70
2022/10/10 12:32:23;;;;;;;7.77;3.73;;;15.30;96.50;;;;;;4895774;29;20573;-70
2022/10/10 12:34:49;;;;;;;6.60;2.90;;;15.30;96.70;;;;;;4901352;29;20451;-70
2022/10/10 12:37:34;;;;;;;7.00;2.87;;;15.30;96.80;;;;;;4891902;29;20469;-70
2022/10/10 12:40:06;;;;;;;7.40;3.10;;;15.40;96.80;;;;;;4863709;29;20816;-70
2022/10/10 12:43:01;;;;;;;6.17;2.90;;;15.40;96.70;;;;;;4879334;29;20576;-69
2022/10/10 12:45:32;;;;;;;5.23;3.40;;;15.40;96.70;;;;;;4878789;29;20441;-70
2022/10/10 12:48:18;;;;;;;9.10;3.07;;;15.40;96.70;;;;;;4894667;29;20464;-69
2022/10/10 12:51:00;;;;;;;10.73;3.00;;;15.50;96.70;;;;;;4894228;29;20444;-70
2022/10/10 12:53:32;;;;;;;3.10;2.57;;;15.50;96.70;;;;;;4878816;29;20462;-70
2022/10/10 12:56:00;;;;;;;6.70;2.80;;;15.50;96.80;;;;;;4863575;29;20950;-69
2022/10/10 12:58:39;;;;;;;6.93;3.23;;;15.50;96.90;;;;;;4886807;29;20835;-70
2022/10/10 13:01:19;;;;;;;5.93;3.27;;;15.50;96.90;;;;;;4881041;29;20479;-70
2022/10/10 13:03:53;;;;;;;6.13;2.90;;;15.50;97.00;;;;;;4895349;29;20488;-70
2022/10/10 13:06:34;;;;;;;7.67;3.33;;;15.60;97.10;;;;;;4909869;29;20976;-70
2022/10/10 13:09:07;;;;;;;5.17;2.93;;;15.60;97.20;;;;;;4893886;29;20539;-70
2022/10/10 13:11:51;;;;;;;13.43;2.93;;;15.70;97.20;;;;;;4894147;29;20525;-70
2022/10/10 13:14:20;;;;;;;5.97;2.97;;;15.70;97.20;;;;;;4889297;29;20463;-70
2022/10/10 13:16:46;;;;;;;9.10;3.23;;;15.70;97.20;;;;;;4893528;29;20538;-69
2022/10/10 13:19:25;;;;;;;7.00;3.17;;;15.80;97.30;;;;;;4894237;29;20418;-69
2022/10/10 13:21:56;;;;;;;9.00;3.50;;;15.80;97.20;;;;;;4878756;29;20893;-69